EDT,Max TemperatureF,Mean TemperatureF,Min TemperatureF,Max Dew PointF,MeanDew PointF,Min DewpointF,Max Humidity, Mean Humidity, Min Humidity, Max Sea Level PressureIn, Mean Sea Level PressureIn, Min Sea Level PressureIn, Max VisibilityMiles, Mean VisibilityMiles, Min VisibilityMiles, Max Wind SpeedMPH, Mean Wind SpeedMPH, Max Gust SpeedMPH,PrecipitationIn, CloudCover, Events, WindDirDegrees
2012-9-1,95,84,73,81,76,72,100,79,47,30.17,30.11,30.04,10,10,7,7,2,,0.00,1,,242
2012-9-2,95,86,77,81,77,72,100,80,47,30.07,30.02,29.94,10,10,5,8,2,,0.00,1,,213
2012-9-3,93,85,77,79,77,72,100,88,52,30.05,30.01,29.97,10,10,2,9,3,18,0.22,1,Thunderstorm,200
2012-9-4,89,83,77,79,76,72,100,83,55,30.02,29.98,29.93,10,10,10,8,4,,0.00,2,Thunderstorm,171
2012-9-5,91,84,77,79,75,70,100,78,49,30.00,29.95,29.90,10,10,10,10,5,,0.00,2,,204
2012-9-6,87,82,77,79,75,72,100,81,58,30.00,29.95,29.91,10,10,3,12,5,16,0.00,3,,226
2012-9-7,89,81,73,79,75,72,100,85,55,29.98,29.92,29.87,10,9,1,6,2,,0.23,4,Thunderstorm,120
2012-9-8,91,84,77,79,75,70,100,80,52,29.87,29.82,29.73,10,9,4,25,4,34,0.01,3,Thunderstorm,210
2012-9-9,82,73,64,77,69,64,100,86,54,29.99,29.88,29.79,10,10,5,12,3,18,0.03,5,,5
2012-9-10,84,72,59,64,60,54,100,75,35,30.15,30.07,29.99,10,10,7,9,2,,0.00,0,,29
2012-9-11,84,72,59,64,59,54,100,74,37,30.28,30.22,30.15,10,10,10,8,1,,0.00,0,,67
2012-9-12,82,70,57,61,58,54,100,74,37,30.34,30.28,30.25,10,8,0,10,2,,0.00,0,,44
2012-9-13,84,73,62,64,62,59,100,73,45,30.31,30.25,30.21,10,8,0,14,3,,0.00,3,,29
2012-9-14,86,74,62,70,66,61,100,82,48,30.24,30.18,30.13,10,10,10,8,2,,0.00,1,,15
2012-9-15,87,74,62,72,65,59,100,77,38,30.18,30.13,30.08,10,10,10,8,1,,0.00,1,,24
2012-9-16,87,76,66,75,67,59,100,78,38,30.14,30.09,30.04,10,10,2,5,0,,0.00,3,,191
2012-9-17,89,78,68,73,69,64,100,77,46,30.08,30.02,29.94,10,10,10,9,2,16,0.00,2,,163
2012-9-18,86,80,73,77,74,72,94,85,66,29.93,29.82,29.75,10,10,2,18,6,28,0.23,4,Thunderstorm,196
2012-9-19,77,70,64,73,68,63,100,87,65,30.11,29.98,29.84,10,10,5,13,4,20,0.00,6,,20
2012-9-20,80,71,62,70,65,61,100,83,54,30.15,30.10,30.05,10,9,5,8,2,,0.00,2,,30
2012-9-21,84,72,59,68,63,59,100,81,45,30.10,30.07,30.01,10,8,5,5,1,,0.00,0,,50
2012-9-22,87,74,62,70,66,63,100,76,46,30.05,30.01,29.95,10,9,7,9,2,,0.00,1,,208
2012-9-23,82,71,59,70,60,52,100,69,35,30.10,30.05,29.98,10,9,5,13,4,21,0.00,0,,18
2012-9-24,78,66,53,59,55,52,100,74,39,30.19,30.15,30.09,10,10,7,12,3,16,0.00,0,,31
2012-9-25,80,66,51,61,55,52,100,75,37,30.25,30.21,30.18,10,9,5,9,1,,0.00,0,,114
2012-9-26,86,70,53,66,61,52,100,78,43,30.24,30.19,30.15,10,10,7,5,0,,0.00,1,,239
2012-9-27,87,74,60,72,66,61,100,80,43,30.23,30.15,30.09,10,9,0,6,0,,0.00,3,,358
2012-9-28,87,74,62,72,67,63,100,79,43,30.13,30.07,30.00,10,10,7,7,1,,0.00,1,,237
2012-9-29,86,77,68,77,70,55,100,90,37,30.02,29.95,29.87,10,8,1,7,1,16,1.45,2,,187
2012-9-30,71,68,66,72,70,66,100,100,94,29.92,29.88,29.85,10,4,1,7,2,,0.08,7,,42